Terminal Aerodrome Forecast
Issued by NWS Columbia, SC

Current Version | Previous Version | Text Only | Print | Product List | Glossary On
Versions: 1 2 3 4 5 6 7 8 9 10 11 12 13 14 15 16 17 18 19 20 21 22 23 24 25
000
FTUS42 KCAE 300541
TAFCAE
TAF
KCAE 300541Z 3006/3106 VRB04KT P6SM SCT250
     FM301100 10003KT 5SM BR SCT005 BKN010
     FM301400 13007KT P6SM SCT050
     FM310000 14005KT P6SM SCT100 BKN250=

USA.gov is the U.S. government's official web portal to all federal, state and local government web resources and services.